Impacts TAF Board INFO
FOR SITUATIONAL AWARENESS. NOT TO BE USED FOR FLIGHT PLANNING PURPOSES.
IDs:

KDFW - Dallas-Ft Worth Intl, TX, US

Issued at 0312 UTC 20 Aug 2018
Updated at 0331 UTC 20 Aug 2018
Potential Impact None Slight Moderate High
Time0253Z 20/04Z 20/05Z 20/06Z 20/07Z 20/08Z 20/09Z 20/10Z 20/11Z 20/12Z 20/13Z 20/14Z 20/15Z 20/16Z>>
Type OBS PRVL PRVL PRVL PRVL PRVL PRVL PRVL PRVL PRVL PRVL PRVL PRVL PRVL
VIS 10 >6 >6 >6 >6 >6 >6 >6 >6 >6 >6 >6 >6 >6
CIG 250 250 250 250 250 70 70 70 70 70 70 -- -- --
Cover BKN BKN BKN BKN BKN BKN BKN BKN BKN BKN BKN SCT SCT SCT
FltCat VFR VFR VFR VFR VFR VFR VFR VFR VFR VFR VFR VFR VFR VFR
WX -- -- -- -- -- VCSH VCSH VCSH VCSH VCSH VCSH -- -- --
WDir 180 180 180 180 180 230 230 230 230 230 230 340 340 340
WSpd 6 6 6 6 6 8 8 8 8 8 8 11 11 11
WGst -- -- -- -- -- -- -- -- -- -- -- -- -- --

Raw TAF
KDFW 200312Z 2003/2106 18006KT P6SM SCT150 BKN250
  FM200800 23008KT P6SM VCSH BKN070
  FM201400 34011KT P6SM SCT070


Raw METAR
KDFW 200253Z 18006KT 10SM FEW070 FEW170 BKN250 29/22 A2984 RMK AO2 SLP095 OCNL LTGIC DSNT SW CB DSNT SW MOV E 60000 T02940217 53016 $
KDFW 200153Z 14005KT 10SM FEW070 SCT170 BKN250 30/22 A2982 RMK AO2 RAB16E27 SLP088 CB DSNT SW MOV E TCU DSNT NE P0000 T03000217 $
KDFW 200053Z 17005KT 10SM FEW070 SCT100 SCT180 BKN250 32/22 A2981 RMK AO2 SLP083 T03220222 $

METAR Board
Radar Display
Forecast Discussion

FOR SITUATIONAL AWARENESS. NOT TO BE USED FOR FLIGHT PLANNING PURPOSES.